Pays
Station

 

Conditions  météo  pour  Pereira/Matecana  -  Colombie    Colombie

  
27 °C
    
 
 

METAR pour Pereira/Matecana :

SKPE 231800Z 32011KT 30007KT 9999 TS SCT020CB SCT080 27/18 A3005 RMK CB VCSH/NE/E

 

Voici le bulletin pour Pereira/Matecana - Colombie.
 
Le bulletin a été fait il y a 20 minutes, à 18:00 UTC .
Le vent soufflait à la vitesse de 3.6 mètres par seconde de Ouest/Nord-ouest (300°).
 
La température était de 27 °C, avec un point de rosée à 18 °C.
La température ressentie était de 28 °C.
 
La pression atmosphérique était de 1018 hPa.
L'humidité relative était de 57.9%.
 
Il y avait 3 à 4/8ème cumulonimbus de nébulosité à une hauteur de 610 mètres et 3 à 4/8ème de nébulosité à une hauteur de 2438 mètres.
 
La visibilité globale était de supérieure à 10 kilomètres.
 
Actuellement orage.

 
 
 

Pays :   A   B   C   D   E   F   G   H   I   J   K   L   M   N   O   P   Q   R   S   T   U   V   W   Y   Z

 

Partenaires :  Info Météo avec Met'info
Météo Marine avec MeteoMarine.net
Infos Site  |  Infos Légales  |  Crédits  |  Confidentialité
Contactez-nous  |  Ajouter aux favoris
© 2013-2019 METAR - Tous droits réservés